AUA911F LOWW-UDYZ
Flight info
| Callsign | AUA911F |
|---|---|
| Flight time | N/A |
| Altitude | 35000 |
| Route | ASPI2C/29 ADAMA DCT VEDER DCT ALAMU DCT EPARI DCT BUDOP DCT UDROS UM859 KARDE UL851 TBN UP146 YAVUZ UN161 INDUR |
| Aircraft | A321/M-SDE3FGHIRWY/LB1 |
Departure
| Time | 2026-04-25 20:41 |
|---|---|
| Airport | Vienna International Airport (LOWW) |
Arrival
| Time | N/A |
|---|---|
| Airport | Zvartnots International Airport (UDYZ) |
| Time | Latitude | Longitude | Altitude | Speed | Heading |
|---|---|---|---|---|---|
| 2026-04-25 20:09 | 48.11901 | 16.56770 | 610 ft | 0 kts | 206° |
| 2026-04-25 20:25 | 48.11901 | 16.56771 | 609 ft | 0 kts | 206° |
| 2026-04-25 20:30 | 48.11908 | 16.56775 | 625 ft | 2 kts | 206° |
| 2026-04-25 20:31 | 48.11926 | 16.56788 | 625 ft | 3 kts | 204° |
| 2026-04-25 20:31 | 48.11944 | 16.56800 | 619 ft | 3 kts | 201° |
| 2026-04-25 20:31 | 48.11963 | 16.56810 | 617 ft | 3 kts | 196° |
| 2026-04-25 20:31 | 48.11983 | 16.56817 | 617 ft | 3 kts | 183° |
| 2026-04-25 20:32 | 48.12001 | 16.56816 | 606 ft | 3 kts | 152° |
| 2026-04-25 20:32 | 48.12010 | 16.56807 | 633 ft | 1 kts | 116° |
| 2026-04-25 20:32 | 48.12010 | 16.56806 | 633 ft | 0 kts | 116° |
| 2026-04-25 20:34 | 48.11987 | 16.56877 | 621 ft | 18 kts | 116° |
| 2026-04-25 20:34 | 48.11928 | 16.57055 | 620 ft | 19 kts | 116° |
| 2026-04-25 20:34 | 48.11871 | 16.57189 | 615 ft | 12 kts | 146° |
| 2026-04-25 20:35 | 48.11836 | 16.57273 | 627 ft | 9 kts | 117° |
| 2026-04-25 20:35 | 48.11809 | 16.57394 | 620 ft | 14 kts | 90° |
| 2026-04-25 20:35 | 48.11766 | 16.57490 | 620 ft | 11 kts | 160° |
| 2026-04-25 20:35 | 48.11697 | 16.57518 | 620 ft | 9 kts | 165° |
| 2026-04-25 20:36 | 48.11607 | 16.57555 | 618 ft | 21 kts | 164° |
| 2026-04-25 20:36 | 48.11464 | 16.57617 | 618 ft | 22 kts | 164° |
| 2026-04-25 20:36 | 48.11330 | 16.57673 | 627 ft | 19 kts | 165° |
| 2026-04-25 20:36 | 48.11204 | 16.57641 | 614 ft | 19 kts | 205° |
| 2026-04-25 20:37 | 48.11102 | 16.57619 | 617 ft | 13 kts | 144° |
| 2026-04-25 20:37 | 48.11028 | 16.57632 | 611 ft | 5 kts | 199° |
| 2026-04-25 20:37 | 48.11027 | 16.57631 | 611 ft | 0 kts | 199° |
| 2026-04-25 20:39 | 48.11011 | 16.57622 | 611 ft | 12 kts | 203° |
| 2026-04-25 20:39 | 48.10929 | 16.57556 | 617 ft | 10 kts | 214° |
| 2026-04-25 20:39 | 48.10924 | 16.57505 | 611 ft | 8 kts | 294° |
| 2026-04-25 20:40 | 48.10928 | 16.57493 | 621 ft | 0 kts | 295° |
| 2026-04-25 20:40 | 48.10929 | 16.57487 | 618 ft | 8 kts | 295° |
| 2026-04-25 20:40 | 48.11060 | 16.57085 | 621 ft | 76 kts | 296° |
| 2026-04-25 20:40 | 48.11376 | 16.56117 | 616 ft | 129 kts | 296° |
| 2026-04-25 20:41 | 48.11831 | 16.54717 | 649 ft | 165 kts | 296° |
| 2026-04-25 20:41 | 48.12178 | 16.53206 | 1427 ft | 149 kts | 268° |
| 2026-04-25 20:41 | 48.11688 | 16.51830 | 1961 ft | 162 kts | 225° |
| 2026-04-25 20:41 | 48.10575 | 16.51111 | 2311 ft | 185 kts | 206° |
| 2026-04-25 20:42 | 48.09322 | 16.50485 | 2598 ft | 199 kts | 207° |
| 2026-04-25 20:42 | 48.07947 | 16.49748 | 2813 ft | 218 kts | 207° |
| 2026-04-25 20:42 | 48.06485 | 16.49015 | 3262 ft | 226 kts | 197° |
| 2026-04-25 20:42 | 48.04874 | 16.49245 | 3710 ft | 247 kts | 159° |
| 2026-04-25 20:43 | 48.03320 | 16.50535 | 3944 ft | 271 kts | 150° |
| 2026-04-25 20:43 | 48.01655 | 16.52081 | 4377 ft | 287 kts | 149° |
| 2026-04-25 20:43 | 47.99955 | 16.53692 | 5114 ft | 290 kts | 148° |
| 2026-04-25 20:43 | 47.98265 | 16.55333 | 5899 ft | 291 kts | 143° |
| 2026-04-25 20:44 | 47.96906 | 16.57580 | 6629 ft | 293 kts | 119° |
| 2026-04-25 20:44 | 47.96231 | 16.60393 | 7290 ft | 294 kts | 95° |
| 2026-04-25 20:44 | 47.96243 | 16.63455 | 7971 ft | 296 kts | 84° |
| 2026-04-25 20:44 | 47.96371 | 16.66543 | 8633 ft | 300 kts | 84° |
| 2026-04-25 20:45 | 47.96498 | 16.69680 | 9301 ft | 304 kts | 84° |
| 2026-04-25 20:45 | 47.96623 | 16.72817 | 9928 ft | 308 kts | 85° |
| 2026-04-25 20:45 | 47.96750 | 16.76066 | 10282 ft | 322 kts | 85° |
| 2026-04-25 20:45 | 47.96884 | 16.79519 | 10409 ft | 343 kts | 85° |
| 2026-04-25 20:46 | 47.97024 | 16.83170 | 10608 ft | 359 kts | 85° |
| 2026-04-25 20:46 | 47.97161 | 16.86887 | 11091 ft | 365 kts | 85° |
| 2026-04-25 20:46 | 47.97300 | 16.90706 | 11660 ft | 369 kts | 85° |
| 2026-04-25 20:46 | 47.97436 | 16.94566 | 12227 ft | 373 kts | 85° |
| 2026-04-25 20:47 | 47.97571 | 16.98468 | 12797 ft | 377 kts | 85° |
| 2026-04-25 20:47 | 47.97706 | 17.02403 | 13367 ft | 381 kts | 85° |
| 2026-04-25 20:47 | 47.97843 | 17.06390 | 13922 ft | 385 kts | 85° |
| 2026-04-25 20:47 | 47.97982 | 17.10399 | 14432 ft | 389 kts | 85° |
| 2026-04-25 20:48 | 47.98121 | 17.14399 | 14941 ft | 392 kts | 85° |
| 2026-04-25 20:48 | 47.98261 | 17.18484 | 15452 ft | 395 kts | 85° |
| 2026-04-25 20:48 | 47.98398 | 17.22596 | 15957 ft | 398 kts | 85° |
| 2026-04-25 20:48 | 47.98535 | 17.26738 | 16450 ft | 401 kts | 85° |
| 2026-04-25 20:49 | 47.98653 | 17.30921 | 16939 ft | 405 kts | 89° |
| 2026-04-25 20:49 | 47.98404 | 17.35133 | 17417 ft | 409 kts | 99° |
| 2026-04-25 20:49 | 47.97662 | 17.39258 | 17884 ft | 413 kts | 108° |
| 2026-04-25 20:49 | 47.96764 | 17.43295 | 18331 ft | 416 kts | 108° |
| 2026-04-25 20:50 | 47.95857 | 17.47411 | 18730 ft | 418 kts | 108° |
| 2026-04-25 20:50 | 47.94952 | 17.51550 | 19116 ft | 421 kts | 108° |
| 2026-04-25 20:50 | 47.94042 | 17.55707 | 19508 ft | 423 kts | 108° |
| 2026-04-25 20:50 | 47.93120 | 17.59910 | 19881 ft | 426 kts | 108° |
| 2026-04-25 20:51 | 47.92205 | 17.64073 | 20240 ft | 428 kts | 108° |
| 2026-04-25 20:51 | 47.91272 | 17.68313 | 20601 ft | 430 kts | 108° |
| 2026-04-25 20:51 | 47.90332 | 17.72569 | 20964 ft | 433 kts | 108° |
| 2026-04-25 20:51 | 47.89379 | 17.76860 | 21314 ft | 435 kts | 109° |
| 2026-04-25 20:52 | 47.88422 | 17.81151 | 21673 ft | 437 kts | 109° |
| 2026-04-25 20:52 | 47.87786 | 17.83993 | 21897 ft | 438 kts | 109° |
| 2026-04-25 20:52 | 47.86497 | 17.89737 | 22380 ft | 441 kts | 109° |
| 2026-04-25 20:52 | 47.85524 | 17.94076 | 22737 ft | 443 kts | 109° |
| 2026-04-25 20:53 | 47.84498 | 17.98428 | 23090 ft | 445 kts | 114° |
| 2026-04-25 20:53 | 47.83211 | 18.02637 | 23439 ft | 446 kts | 116° |
| 2026-04-25 20:53 | 47.81899 | 18.06841 | 23757 ft | 448 kts | 116° |
| 2026-04-25 20:53 | 47.80599 | 18.11003 | 24050 ft | 451 kts | 116° |
| 2026-04-25 20:54 | 47.79268 | 18.15258 | 24351 ft | 453 kts | 116° |
| 2026-04-25 20:54 | 47.77932 | 18.19528 | 24639 ft | 455 kts | 116° |
| 2026-04-25 20:54 | 47.76589 | 18.23800 | 24928 ft | 457 kts | 116° |
| 2026-04-25 20:54 | 47.75254 | 18.28041 | 25215 ft | 460 kts | 116° |
| 2026-04-25 20:55 | 47.74089 | 18.32499 | 25485 ft | 463 kts | 107° |
| 2026-04-25 20:55 | 47.73386 | 18.37188 | 25761 ft | 466 kts | 97° |
| 2026-04-25 20:55 | 47.73021 | 18.41988 | 26035 ft | 468 kts | 95° |
| 2026-04-25 20:55 | 47.72667 | 18.46762 | 26306 ft | 471 kts | 96° |
| 2026-04-25 20:56 | 47.72301 | 18.51602 | 26581 ft | 473 kts | 96° |
| 2026-04-25 20:56 | 47.71925 | 18.56462 | 26852 ft | 475 kts | 96° |
| 2026-04-25 20:56 | 47.71539 | 18.61355 | 27124 ft | 477 kts | 96° |
| 2026-04-25 20:56 | 47.71152 | 18.66265 | 27394 ft | 480 kts | 96° |
| 2026-04-25 20:57 | 47.70763 | 18.71200 | 27656 ft | 482 kts | 96° |
| 2026-04-25 20:57 | 47.70371 | 18.76170 | 27905 ft | 484 kts | 96° |
| 2026-04-25 20:57 | 47.69977 | 18.81147 | 28171 ft | 487 kts | 96° |
| 2026-04-25 20:57 | 47.69577 | 18.86154 | 28436 ft | 489 kts | 96° |
| 2026-04-25 20:58 | 47.69174 | 18.91119 | 28684 ft | 491 kts | 97° |
| 2026-04-25 20:58 | 47.68493 | 18.96100 | 28923 ft | 494 kts | 106° |
| 2026-04-25 20:58 | 47.67332 | 19.00909 | 29139 ft | 495 kts | 115° |
| 2026-04-25 20:58 | 47.65737 | 19.05444 | 29364 ft | 496 kts | 121° |
| 2026-04-25 20:59 | 47.64028 | 19.09902 | 29616 ft | 498 kts | 121° |
| 2026-04-25 20:59 | 47.62323 | 19.14380 | 29836 ft | 499 kts | 121° |
| 2026-04-25 20:59 | 47.60616 | 19.18881 | 30052 ft | 500 kts | 121° |
| 2026-04-25 20:59 | 47.58908 | 19.23385 | 30243 ft | 501 kts | 121° |
| 2026-04-25 21:00 | 47.57195 | 19.27884 | 30435 ft | 502 kts | 121° |
| 2026-04-25 21:00 | 47.56636 | 19.29347 | 30486 ft | 503 kts | 121° |
| 2026-04-25 21:00 | 47.52034 | 19.41334 | 31116 ft | 502 kts | 122° |
| 2026-04-25 21:01 | 47.50311 | 19.45809 | 31338 ft | 502 kts | 122° |
| 2026-04-25 21:01 | 47.48580 | 19.50295 | 31566 ft | 502 kts | 122° |
| 2026-04-25 21:01 | 47.46847 | 19.54776 | 31781 ft | 502 kts | 122° |
| 2026-04-25 21:01 | 47.45116 | 19.59251 | 31998 ft | 502 kts | 122° |
| 2026-04-25 21:02 | 47.43379 | 19.63740 | 32212 ft | 502 kts | 122° |
| 2026-04-25 21:02 | 47.41644 | 19.68217 | 32425 ft | 503 kts | 122° |
| 2026-04-25 21:02 | 47.39903 | 19.72701 | 32634 ft | 503 kts | 122° |
| 2026-04-25 21:02 | 47.38163 | 19.77175 | 32843 ft | 503 kts | 122° |
| 2026-04-25 21:03 | 47.36436 | 19.81607 | 33035 ft | 504 kts | 122° |
| 2026-04-25 21:03 | 47.34682 | 19.86094 | 33244 ft | 504 kts | 122° |
| 2026-04-25 21:03 | 47.32931 | 19.90561 | 33449 ft | 504 kts | 122° |
| 2026-04-25 21:03 | 47.31171 | 19.95043 | 33663 ft | 505 kts | 122° |
| 2026-04-25 21:04 | 47.29413 | 19.99520 | 33871 ft | 504 kts | 122° |
| 2026-04-25 21:04 | 47.27653 | 20.03995 | 34065 ft | 504 kts | 122° |
| 2026-04-25 21:04 | 47.25892 | 20.08464 | 34265 ft | 504 kts | 122° |
| 2026-04-25 21:04 | 47.24134 | 20.12924 | 34468 ft | 503 kts | 122° |
| 2026-04-25 21:05 | 47.22376 | 20.17374 | 34666 ft | 502 kts | 122° |
| 2026-04-25 21:05 | 47.20621 | 20.21812 | 34860 ft | 502 kts | 122° |
| 2026-04-25 21:05 | 47.18854 | 20.26265 | 34937 ft | 504 kts | 122° |
| 2026-04-25 21:06 | 47.15311 | 20.35168 | 34946 ft | 511 kts | 122° |
| 2026-04-25 21:06 | 47.11686 | 20.44248 | 34940 ft | 517 kts | 122° |
| 2026-04-25 21:07 | 47.08017 | 20.53433 | 34953 ft | 523 kts | 122° |
| 2026-04-25 21:07 | 47.04332 | 20.62610 | 34937 ft | 527 kts | 122° |
| 2026-04-25 21:08 | 47.00580 | 20.71923 | 34939 ft | 532 kts | 122° |
| 2026-04-25 21:08 | 46.96821 | 20.81217 | 35174 ft | 530 kts | 122° |
| 2026-04-25 21:08 | 46.94953 | 20.85837 | 35389 ft | 527 kts | 122° |
| 2026-04-25 21:09 | 46.91221 | 20.95062 | 35671 ft | 525 kts | 122° |
| 2026-04-25 21:09 | 46.89362 | 20.99658 | 35795 ft | 524 kts | 122° |
| 2026-04-25 21:09 | 46.87502 | 21.04254 | 35900 ft | 524 kts | 122° |
| 2026-04-25 21:10 | 46.85648 | 21.08832 | 36022 ft | 523 kts | 122° |
| 2026-04-25 21:10 | 46.83792 | 21.13415 | 36126 ft | 523 kts | 122° |
| 2026-04-25 21:10 | 46.81944 | 21.17977 | 36233 ft | 522 kts | 122° |
| 2026-04-25 21:10 | 46.80115 | 21.22493 | 36337 ft | 522 kts | 122° |
| 2026-04-25 21:11 | 46.76457 | 21.31523 | 36365 ft | 506 kts | 122° |
| 2026-04-25 21:11 | 46.74670 | 21.35938 | 36123 ft | 507 kts | 122° |
| 2026-04-25 21:11 | 46.72853 | 21.40422 | 35740 ft | 519 kts | 122° |
| 2026-04-25 21:12 | 46.70988 | 21.45016 | 35248 ft | 533 kts | 122° |
| 2026-04-25 21:12 | 46.69110 | 21.49636 | 35648 ft | 522 kts | 122° |
| 2026-04-25 21:12 | 46.67297 | 21.54106 | 35927 ft | 506 kts | 122° |
| 2026-04-25 21:12 | 46.66720 | 21.55529 | 35975 ft | 503 kts | 122° |
| 2026-04-25 21:13 | 46.62025 | 21.67112 | 35646 ft | 496 kts | 122° |
| 2026-04-25 21:13 | 46.60267 | 21.71449 | 35176 ft | 496 kts | 122° |
| 2026-04-25 21:13 | 46.58511 | 21.75776 | 34599 ft | 497 kts | 122° |
| 2026-04-25 21:14 | 46.56751 | 21.80112 | 33831 ft | 498 kts | 122° |
| 2026-04-25 21:14 | 46.54975 | 21.84486 | 32824 ft | 503 kts | 122° |
| 2026-04-25 21:14 | 46.53202 | 21.88846 | 31693 ft | 510 kts | 122° |
| 2026-04-25 21:14 | 46.51385 | 21.93310 | 30463 ft | 518 kts | 122° |
| 2026-04-25 21:15 | 46.49531 | 21.97856 | 28948 ft | 527 kts | 122° |
| 2026-04-25 21:15 | 46.47645 | 22.02475 | 27548 ft | 533 kts | 122° |
| 2026-04-25 21:15 | 46.45776 | 22.07051 | 27121 ft | 518 kts | 122° |
| 2026-04-25 21:15 | 46.43981 | 22.11454 | 26533 ft | 508 kts | 122° |
| 2026-04-25 21:16 | 46.42192 | 22.15845 | 25777 ft | 503 kts | 122° |
| 2026-04-25 21:16 | 46.40412 | 22.20212 | 24884 ft | 501 kts | 122° |
| 2026-04-25 21:16 | 46.38634 | 22.24572 | 23865 ft | 503 kts | 122° |
| 2026-04-25 21:16 | 46.36846 | 22.28955 | 22529 ft | 508 kts | 122° |
| 2026-04-25 21:17 | 46.35037 | 22.33385 | 21107 ft | 514 kts | 122° |
| 2026-04-25 21:17 | 46.33262 | 22.37732 | 20600 ft | 500 kts | 122° |
| 2026-04-25 21:17 | 46.31508 | 22.42030 | 19956 ft | 491 kts | 122° |
| 2026-04-25 21:17 | 46.29780 | 22.46266 | 19163 ft | 486 kts | 122° |
| 2026-04-25 21:18 | 46.28060 | 22.50483 | 18221 ft | 485 kts | 121° |
| 2026-04-25 21:18 | 46.26367 | 22.54634 | 17220 ft | 484 kts | 121° |
| 2026-04-25 21:18 | 46.24679 | 22.58772 | 16697 ft | 470 kts | 121° |
| 2026-04-25 21:18 | 46.23031 | 22.62813 | 16021 ft | 463 kts | 121° |
| 2026-04-25 21:19 | 46.21404 | 22.66800 | 15167 ft | 459 kts | 121° |
| 2026-04-25 21:19 | 46.20332 | 22.69429 | 14550 ft | 458 kts | 121° |
| 2026-04-25 21:19 | 46.18715 | 22.73388 | 13832 ft | 452 kts | 120° |
| 2026-04-25 21:19 | 46.16637 | 22.78475 | 13078 ft | 436 kts | 120° |
| 2026-04-25 21:20 | 46.15113 | 22.82206 | 12284 ft | 429 kts | 120° |
| 2026-04-25 21:20 | 46.14601 | 22.83457 | 11990 ft | 428 kts | 120° |
| 2026-04-25 21:20 | 46.12105 | 22.89564 | 10286 ft | 428 kts | 120° |
| 2026-04-25 21:20 | 46.11098 | 22.92025 | 9741 ft | 425 kts | 120° |
| 2026-04-25 21:21 | 46.09618 | 22.95645 | 9170 ft | 413 kts | 120° |
| 2026-04-25 21:21 | 46.08170 | 22.99185 | 8433 ft | 407 kts | 121° |
| 2026-04-25 21:21 | 46.06732 | 23.02702 | 7528 ft | 406 kts | 121° |
| 2026-04-25 21:21 | 46.05297 | 23.06212 | 6501 ft | 409 kts | 121° |
| 2026-04-25 21:22 | 46.03886 | 23.09664 | 5878 ft | 400 kts | 121° |
| 2026-04-25 21:22 | 46.02483 | 23.13097 | 5112 ft | 394 kts | 122° |
| 2026-04-25 21:22 | 46.01093 | 23.16496 | 4183 ft | 393 kts | 122° |
| 2026-04-25 21:22 | 45.99721 | 23.19851 | 3650 ft | 383 kts | 121° |
| 2026-04-25 21:23 | 45.98394 | 23.23100 | 3037 ft | 374 kts | 121° |
| 2026-04-25 21:23 | 45.97083 | 23.26311 | 2226 ft | 370 kts | 121° |
| 2026-04-25 21:23 | 45.95807 | 23.29436 | 1925 ft | 353 kts | 121° |
| 2026-04-25 21:23 | 45.94587 | 23.32427 | 1474 ft | 340 kts | 121° |
| 2026-04-25 21:24 | 45.93402 | 23.35335 | 880 ft | 335 kts | 121° |
| 2026-04-25 21:24 | 45.92562 | 23.37690 | 990 ft | 229 kts | 104° |
| 2026-04-25 21:24 | 45.92518 | 23.38584 | 882 ft | 0 kts | 20° |